^^
Saratoga-Weather Station Historical Data
Daily Summary for January 18, 2021 Units:  Both    English   Metric
Daily Weekly Monthly Yearly Custom
  High: Low: Average:
Temperature: 36.5 °F /  2.5 °C 36 °F /  2.2 °C 36.3 °F /  2.4 °C
Dew Point: 34.5 °F /  1.4 °C 33.8 °F /  1 °C 34.3 °F /  1.3 °C
Humidity: 93% 92% 93%
Wind Speed: 8.9mph /  14.3km/h - 4.5mph /  7.2km/h
Wind Gust: 16mph /  25.7km/h - -
Wind- - West
Pressure: 30.3 in /  1025.7 hPa 30.3 in /  1025.1 hPa -
Precipitation: 0.01 in /  0.2 mm    
Historical Graphs
 
 
Tabular Data for January 18, 2021
Time Temperature Dew Point Pressure Wind Wind Speed Wind Gust Humidity Rainfall Rate (Hourly) solar
00:03 36.3 °F /  2.4 °C 34.5 °F /  1.4 °C 30.3in /  1025.4hPa WSW 4mph /  6.4km/h 5mph /  8km/h 93% 0.02in /  0.5mm 0 W/m2
00:08 36.3 °F /  2.4 °C 34.5 °F /  1.4 °C 30.3in /  1025.4hPa West 0.9mph /  1.4km/h 7mph /  11.3km/h 93% 0.01in /  0.2mm 0 W/m2
00:13 36.3 °F /  2.4 °C 34.5 °F /  1.4 °C 30.3in /  1025.4hPa NW 2.9mph /  4.7km/h 8mph /  12.9km/h 93% 0.01in /  0.2mm 0 W/m2
00:18 36.3 °F /  2.4 °C 34.2 °F /  1.2 °C 30.3in /  1025.4hPa West 8.9mph /  14.3km/h 10mph /  16.1km/h 92% 0.01in /  0.2mm 0 W/m2
00:23 36.3 °F /  2.4 °C 34.2 °F /  1.2 °C 30.3in /  1025.4hPa WSW 8.1mph /  13km/h 11mph /  17.7km/h 92% 0.01in /  0.2mm 0 W/m2
00:28 36.5 °F /  2.5 °C 34.3 °F /  1.3 °C 30.3in /  1025.4hPa West 4mph /  6.4km/h 10mph /  16.1km/h 92% 0.01in /  0.2mm 0 W/m2
00:33 36.5 °F /  2.5 °C 34.3 °F /  1.3 °C 30.3in /  1025.4hPa West 2.9mph /  4.7km/h 9mph /  14.5km/h 92% 0.01in /  0.2mm 0 W/m2
00:38 36.5 °F /  2.5 °C 34.3 °F /  1.3 °C 30.3in /  1025.4hPa West 4mph /  6.4km/h 11mph /  17.7km/h 92% 0.01in /  0.2mm 0 W/m2
00:43 36.5 °F /  2.5 °C 34.3 °F /  1.3 °C 30.3in /  1025.4hPa WNW 2.9mph /  4.7km/h 9mph /  14.5km/h 92% 0.01in /  0.2mm 0 W/m2
00:48 36.3 °F /  2.4 °C 34.2 °F /  1.2 °C 30.3in /  1025.4hPa WSW 4.9mph /  7.9km/h 9mph /  14.5km/h 92% 0.01in /  0.2mm 0 W/m2
00:53 36.3 °F /  2.4 °C 34.2 °F /  1.2 °C 30.3in /  1025.4hPa West 6mph /  9.7km/h 13mph /  20.9km/h 92% 0.01in /  0.2mm 0 W/m2
00:58 36.3 °F /  2.4 °C 34.2 °F /  1.2 °C 30.3in /  1025.4hPa WNW 6mph /  9.7km/h 15mph /  24.1km/h 92% 0.01in /  0.2mm 0 W/m2
01:03 36.3 °F /  2.4 °C 34.2 °F /  1.2 °C 30.3in /  1025.4hPa WSW 4.9mph /  7.9km/h 9mph /  14.5km/h 92% 0in /  0.0mm 0 W/m2
01:08 36.3 °F /  2.4 °C 34.2 °F /  1.2 °C 30.3in /  1025.4hPa West 6.9mph /  11.1km/h 13mph /  20.9km/h 92% 0in /  0.0mm 0 W/m2
01:13 36.3 °F /  2.4 °C 34.2 °F /  1.2 °C 30.3in /  1025.4hPa WSW 8.1mph /  13km/h 10mph /  16.1km/h 92% 0in /  0.0mm 0 W/m2
01:18 36.1 °F /  2.3 °C 34 °F /  1.1 °C 30.3in /  1025.4hPa WSW 2.9mph /  4.7km/h 9mph /  14.5km/h 92% 0in /  0.0mm 0 W/m2
01:23 36.1 °F /  2.3 °C 34 °F /  1.1 °C 30.3in /  1025.4hPa SW 2.9mph /  4.7km/h 16mph /  25.7km/h 92% 0in /  0.0mm 0 W/m2
01:28 36 °F /  2.2 °C 33.8 °F /  1 °C 30.3in /  1025.1hPa West 2mph /  3.2km/h 8mph /  12.9km/h 92% 0in /  0.0mm 0 W/m2
01:33 36 °F /  2.2 °C 34.2 °F /  1.2 °C 30.3in /  1025.4hPa West 2mph /  3.2km/h 14mph /  22.5km/h 93% 0in /  0.0mm 0 W/m2
01:38 36.1 °F /  2.3 °C 34.3 °F /  1.3 °C 30.3in /  1025.4hPa WNW 4mph /  6.4km/h 10mph /  16.1km/h 93% 0in /  0.0mm 0 W/m2
01:43 36.1 °F /  2.3 °C 34.3 °F /  1.3 °C 30.3in /  1025.4hPa SW 4.9mph /  7.9km/h 11mph /  17.7km/h 93% 0in /  0.0mm 0 W/m2
01:48 36.1 °F /  2.3 °C 34.3 °F /  1.3 °C 30.3in /  1025.4hPa WNW 4mph /  6.4km/h 8mph /  12.9km/h 93% 0in /  0.0mm 0 W/m2
01:53 36 °F /  2.2 °C 34.2 °F /  1.2 °C 30.3in /  1025.4hPa WNW 4mph /  6.4km/h 13mph /  20.9km/h 93% 0in /  0.0mm 0 W/m2
01:58 36 °F /  2.2 °C 34.2 °F /  1.2 °C 30.3in /  1025.4hPa WNW 4mph /  6.4km/h 8mph /  12.9km/h 93% 0in /  0.0mm 0 W/m2
02:03 36.1 °F /  2.3 °C 34.3 °F /  1.3 °C 30.3in /  1025.4hPa West 6.9mph /  11.1km/h 13mph /  20.9km/h 93% 0in /  0.0mm 0 W/m2
02:08 36.1 °F /  2.3 °C 34.3 °F /  1.3 °C 30.3in /  1025.4hPa SW 4.9mph /  7.9km/h 14mph /  22.5km/h 93% 0in /  0.0mm 0 W/m2
02:13 36.3 °F /  2.4 °C 34.5 °F /  1.4 °C 30.3in /  1025.4hPa West 4mph /  6.4km/h 11mph /  17.7km/h 93% 0in /  0.0mm 0 W/m2
02:18 36.3 °F /  2.4 °C 34.5 °F /  1.4 °C 30.3in /  1025.4hPa SW 4.9mph /  7.9km/h 14mph /  22.5km/h 93% 0in /  0.0mm 0 W/m2
02:23 36.3 °F /  2.4 °C 34.5 °F /  1.4 °C 30.3in /  1025.7hPa West 6mph /  9.7km/h 12mph /  19.3km/h 93% 0in /  0.0mm 0 W/m2
02:28 36.3 °F /  2.4 °C 34.5 °F /  1.4 °C 30.3in /  1025.7hPa WNW 6mph /  9.7km/h 10mph /  16.1km/h 93% 0in /  0.0mm 0 W/m2
02:33 36.1 °F /  2.3 °C 34.3 °F /  1.3 °C 30.3in /  1025.7hPa WNW 2.9mph /  4.7km/h 12mph /  19.3km/h 93% 0in /  0.0mm 0 W/m2
02:38 36.1 °F /  2.3 °C 34.3 °F /  1.3 °C 30.3in /  1025.7hPa SW 4.9mph /  7.9km/h 10mph /  16.1km/h 93% 0in /  0.0mm 0 W/m2
02:43 36.1 °F /  2.3 °C 34.3 °F /  1.3 °C 30.3in /  1025.4hPa WNW 6.9mph /  11.1km/h 12mph /  19.3km/h 93% 0in /  0.0mm 0 W/m2
02:48 36.1 °F /  2.3 °C 34.3 °F /  1.3 °C 30.3in /  1025.4hPa WNW 2.9mph /  4.7km/h 7mph /  11.3km/h 93% 0in /  0.0mm 0 W/m2
02:53 36.1 °F /  2.3 °C 34.3 °F /  1.3 °C 30.3in /  1025.4hPa West 2.9mph /  4.7km/h 6mph /  9.7km/h 93% 0in /  0.0mm 0 W/m2
02:58 36.1 °F /  2.3 °C 34.3 °F /  1.3 °C 30.3in /  1025.4hPa WNW 2mph /  3.2km/h 8mph /  12.9km/h 93% 0in /  0.0mm 0 W/m2
03:03 36.1 °F /  2.3 °C 34.3 °F /  1.3 °C 30.3in /  1025.4hPa WSW 4.9mph /  7.9km/h 8mph /  12.9km/h 93% 0in /  0.0mm 0 W/m2
Juneau County Weather
Compliments of Weather Underground - 2 mb